sensor_id;sensor_type;location;lat;lon;timestamp;pressure;altitude;pressure_sealevel;temperature;humidity
56270;BME280;42176;43.240;27.880;2023-05-14T00:01:58;100901.50;;;7.62;100.00
56270;BME280;42176;43.240;27.880;2023-05-14T00:04:23;100907.72;;;8.00;100.00
56270;BME280;42176;43.240;27.880;2023-05-14T00:06:48;100889.03;;;7.14;100.00
56270;BME280;42176;43.240;27.880;2023-05-14T00:09:14;100901.41;;;7.37;100.00
56270;BME280;42176;43.240;27.880;2023-05-14T00:11:39;100894.41;;;7.56;100.00
56270;BME280;42176;43.240;27.880;2023-05-14T00:14:05;100897.09;;;7.75;100.00
56270;BME280;42176;43.240;27.880;2023-05-14T00:16:30;100905.94;;;7.94;100.00
56270;BME280;42176;43.240;27.880;2023-05-14T00:18:56;100903.31;;;8.03;99.40
56270;BME280;42176;43.240;27.880;2023-05-14T00:21:21;100904.91;;;7.36;100.00
56270;BME280;42176;43.240;27.880;2023-05-14T00:23:47;100905.88;;;7.52;100.00
56270;BME280;42176;43.240;27.880;2023-05-14T00:26:12;100905.91;;;7.68;100.00
56270;BME280;42176;43.240;27.880;2023-05-14T00:28:37;100906.81;;;7.90;97.01
56270;BME280;42176;43.240;27.880;2023-05-14T00:31:03;100913.69;;;7.29;100.00
56270;BME280;42176;43.240;27.880;2023-05-14T00:33:28;100920.78;;;7.42;100.00
56270;BME280;42176;43.240;27.880;2023-05-14T00:35:54;100916.44;;;7.61;99.25
56270;BME280;42176;43.240;27.880;2023-05-14T00:38:19;100921.75;;;7.85;95.78
56270;BME280;42176;43.240;27.880;2023-05-14T00:40:45;100922.66;;;8.02;92.99
56270;BME280;42176;43.240;27.880;2023-05-14T00:43:17;100918.28;;;8.17;90.35
56270;BME280;42176;43.240;27.880;2023-05-14T00:45:43;100917.38;;;8.46;87.50
56270;BME280;42176;43.240;27.880;2023-05-14T00:48:09;100918.97;;;7.35;90.96
56270;BME280;42176;43.240;27.880;2023-05-14T00:50:34;100917.09;;;7.06;97.03
56270;BME280;42176;43.240;27.880;2023-05-14T00:53:00;100915.41;;;7.24;97.66
56270;BME280;42176;43.240;27.880;2023-05-14T00:55:28;100912.84;;;7.39;96.10
56270;BME280;42176;43.240;27.880;2023-05-14T00:57:55;100915.56;;;7.61;94.85
56270;BME280;42176;43.240;27.880;2023-05-14T01:00:22;100927.06;;;8.05;89.50
56270;BME280;42176;43.240;27.880;2023-05-14T01:02:47;100912.72;;;7.13;93.68
56270;BME280;42176;43.240;27.880;2023-05-14T01:05:13;100909.28;;;7.28;95.13
56270;BME280;42176;43.240;27.880;2023-05-14T01:10:19;100910.31;;;7.73;91.32
56270;BME280;42176;43.240;27.880;2023-05-14T01:13:01;100906.84;;;8.21;85.87
56270;BME280;42176;43.240;27.880;2023-05-14T01:15:32;100898.78;;;7.43;87.55
56270;BME280;42176;43.240;27.880;2023-05-14T01:18:03;100897.91;;;7.47;90.62
56270;BME280;42176;43.240;27.880;2023-05-14T01:20:29;100887.41;;;7.66;89.18
56270;BME280;42176;43.240;27.880;2023-05-14T01:22:54;100899.78;;;8.14;85.57
56270;BME280;42176;43.240;27.880;2023-05-14T01:25:20;100892.59;;;7.35;87.32
56270;BME280;42176;43.240;27.880;2023-05-14T01:30:31;100894.44;;;7.53;90.44
56270;BME280;42176;43.240;27.880;2023-05-14T01:33:01;100891.00;;;8.08;87.49
56270;BME280;42176;43.240;27.880;2023-05-14T01:35:29;100891.72;;;7.33;90.44
56270;BME280;42176;43.240;27.880;2023-05-14T01:38:00;100889.13;;;7.45;92.23
56270;BME280;42176;43.240;27.880;2023-05-14T01:40:25;100897.09;;;7.62;89.86
56270;BME280;42176;43.240;27.880;2023-05-14T01:42:52;100895.34;;;7.85;86.95
56270;BME280;42176;43.240;27.880;2023-05-14T01:45:24;100891.88;;;8.04;85.87
56270;BME280;42176;43.240;27.880;2023-05-14T01:47:50;100877.78;;;8.21;83.93
56270;BME280;42176;43.240;27.880;2023-05-14T01:50:16;100893.63;;;8.40;82.35
56270;BME280;42176;43.240;27.880;2023-05-14T01:52:41;100891.00;;;8.49;80.06
56270;BME280;42176;43.240;27.880;2023-05-14T01:55:07;100890.72;;;7.01;88.08
56270;BME280;42176;43.240;27.880;2023-05-14T01:57:33;100887.25;;;7.13;91.05
56270;BME280;42176;43.240;27.880;2023-05-14T01:59:58;100882.09;;;7.44;89.32
56270;BME280;42176;43.240;27.880;2023-05-14T02:02:24;100894.44;;;7.67;87.51
56270;BME280;42176;43.240;27.880;2023-05-14T02:04:49;100895.38;;;7.92;85.37
56270;BME280;42176;43.240;27.880;2023-05-14T02:07:15;100894.50;;;8.01;84.49
56270;BME280;42176;43.240;27.880;2023-05-14T02:09:40;100898.03;;;8.19;82.33
56270;BME280;42176;43.240;27.880;2023-05-14T02:12:07;100899.78;;;8.29;82.12
56270;BME280;42176;43.240;27.880;2023-05-14T02:14:32;100899.78;;;8.38;81.34
56270;BME280;42176;43.240;27.880;2023-05-14T02:16:58;100893.63;;;8.32;78.35
56270;BME280;42176;43.240;27.880;2023-05-14T02:19:23;100897.03;;;7.38;86.04
56270;BME280;42176;43.240;27.880;2023-05-14T02:21:49;100900.50;;;7.32;91.41
56270;BME280;42176;43.240;27.880;2023-05-14T02:24:14;100898.81;;;7.46;93.51
56270;BME280;42176;43.240;27.880;2023-05-14T02:29:25;100893.50;;;7.37;88.37
56270;BME280;42176;43.240;27.880;2023-05-14T02:31:51;100907.31;;;6.86;95.72
56270;BME280;42176;43.240;27.880;2023-05-14T02:34:16;100888.94;;;6.96;95.45
56270;BME280;42176;43.240;27.880;2023-05-14T02:36:41;100899.56;;;7.14;95.85
56270;BME280;42176;43.240;27.880;2023-05-14T02:39:07;100904.88;;;7.27;95.13
56270;BME280;42176;43.240;27.880;2023-05-14T02:41:32;100915.50;;;7.45;91.13
56270;BME280;42176;43.240;27.880;2023-05-14T02:43:58;100912.44;;;6.57;93.72
56270;BME280;42176;43.240;27.880;2023-05-14T02:46:23;100909.91;;;6.77;93.67
56270;BME280;42176;43.240;27.880;2023-05-14T02:48:49;100918.81;;;6.98;93.62
56270;BME280;42176;43.240;27.880;2023-05-14T02:51:14;100915.41;;;7.21;91.23
56270;BME280;42176;43.240;27.880;2023-05-14T02:53:40;100923.41;;;7.47;88.96
56270;BME280;42176;43.240;27.880;2023-05-14T02:56:06;100918.19;;;7.67;88.35
56270;BME280;42176;43.240;27.880;2023-05-14T02:58:32;100920.91;;;7.98;86.42
56270;BME280;42176;43.240;27.880;2023-05-14T03:00:58;100910.25;;;7.52;83.90
56270;BME280;42176;43.240;27.880;2023-05-14T03:03:23;100891.38;;;6.63;90.83
56270;BME280;42176;43.240;27.880;2023-05-14T03:05:49;100913.63;;;7.20;88.89
56270;BME280;42176;43.240;27.880;2023-05-14T03:08:15;100915.50;;;7.49;86.89
56270;BME280;42176;43.240;27.880;2023-05-14T03:10:41;100920.88;;;7.95;80.72
56270;BME280;42176;43.240;27.880;2023-05-14T03:13:07;100933.22;;;7.87;82.45
56270;BME280;42176;43.240;27.880;2023-05-14T03:15:32;100938.53;;;8.08;83.17
56270;BME280;42176;43.240;27.880;2023-05-14T03:17:58;100931.50;;;8.32;81.11
56270;BME280;42176;43.240;27.880;2023-05-14T03:20:23;100933.25;;;8.58;80.11
56270;BME280;42176;43.240;27.880;2023-05-14T03:22:50;100936.78;;;8.85;79.45
56270;BME280;42176;43.240;27.880;2023-05-14T03:25:15;100929.63;;;9.15;76.65
56270;BME280;42176;43.240;27.880;2023-05-14T03:27:41;100915.63;;;8.60;77.20
56270;BME280;42176;43.240;27.880;2023-05-14T03:30:06;100930.59;;;8.15;83.43
56270;BME280;42176;43.240;27.880;2023-05-14T03:32:32;100928.00;;;8.49;84.23
56270;BME280;42176;43.240;27.880;2023-05-14T03:34:58;100934.91;;;9.15;82.07
56270;BME280;42176;43.240;27.880;2023-05-14T03:37:23;100926.47;;;10.06;77.00
56270;BME280;42176;43.240;27.880;2023-05-14T03:39:48;100941.09;;;10.62;72.37
56270;BME280;42176;43.240;27.880;2023-05-14T03:42:14;100944.53;;;11.51;67.77
56270;BME280;42176;43.240;27.880;2023-05-14T03:44:39;100943.72;;;12.10;62.55
56270;BME280;42176;43.240;27.880;2023-05-14T03:47:05;100936.59;;;12.14;60.84
56270;BME280;42176;43.240;27.880;2023-05-14T03:49:30;100931.47;;;12.56;59.71
56270;BME280;42176;43.240;27.880;2023-05-14T03:51:56;100914.34;;;13.18;59.66
56270;BME280;42176;43.240;27.880;2023-05-14T03:54:23;100913.97;;;13.37;58.19
56270;BME280;42176;43.240;27.880;2023-05-14T03:56:49;100924.19;;;14.34;55.58
56270;BME280;42176;43.240;27.880;2023-05-14T03:59:14;100917.88;;;15.37;51.67
56270;BME280;42176;43.240;27.880;2023-05-14T04:01:40;100925.66;;;16.05;49.17
56270;BME280;42176;43.240;27.880;2023-05-14T04:04:05;100932.66;;;16.88;48.17
56270;BME280;42176;43.240;27.880;2023-05-14T04:06:31;100935.59;;;17.55;45.35
56270;BME280;42176;43.240;27.880;2023-05-14T04:08:57;100943.72;;;18.00;44.11
56270;BME280;42176;43.240;27.880;2023-05-14T04:11:22;100934.28;;;18.56;42.70
56270;BME280;42176;43.240;27.880;2023-05-14T04:13:48;100938.31;;;19.28;43.26
56270;BME280;42176;43.240;27.880;2023-05-14T04:16:13;100948.22;;;20.04;44.43
56270;BME280;42176;43.240;27.880;2023-05-14T04:18:39;100948.38;;;20.73;43.75
56270;BME280;42176;43.240;27.880;2023-05-14T04:21:04;100939.44;;;21.25;43.12
56270;BME280;42176;43.240;27.880;2023-05-14T04:23:30;100927.84;;;21.89;41.43
56270;BME280;42176;43.240;27.880;2023-05-14T04:25:58;100905.72;;;21.66;39.82
56270;BME280;42176;43.240;27.880;2023-05-14T04:28:23;100937.78;;;21.05;39.79
56270;BME280;42176;43.240;27.880;2023-05-14T04:30:49;100930.53;;;21.73;39.99
56270;BME280;42176;43.240;27.880;2023-05-14T04:33:15;100922.56;;;21.87;37.56
56270;BME280;42176;43.240;27.880;2023-05-14T04:35:40;100921.13;;;21.96;36.66
56270;BME280;42176;43.240;27.880;2023-05-14T04:38:05;100922.56;;;22.50;36.19
56270;BME280;42176;43.240;27.880;2023-05-14T04:40:31;100929.25;;;23.18;35.75
56270;BME280;42176;43.240;27.880;2023-05-14T04:42:56;100933.13;;;23.43;36.01
56270;BME280;42176;43.240;27.880;2023-05-14T04:45:22;100933.09;;;23.14;36.73
56270;BME280;42176;43.240;27.880;2023-05-14T04:47:47;100933.47;;;23.80;37.12
56270;BME280;42176;43.240;27.880;2023-05-14T04:50:13;100937.59;;;24.68;35.35
56270;BME280;42176;43.240;27.880;2023-05-14T04:52:39;100940.91;;;25.25;34.90
56270;BME280;42176;43.240;27.880;2023-05-14T04:55:05;100931.56;;;25.92;33.23
56270;BME280;42176;43.240;27.880;2023-05-14T04:57:30;100931.31;;;26.33;32.96
56270;BME280;42176;43.240;27.880;2023-05-14T04:59:56;100936.94;;;26.78;32.07
56270;BME280;42176;43.240;27.880;2023-05-14T05:02:41;100931.34;;;27.49;30.71
56270;BME280;42176;43.240;27.880;2023-05-14T05:05:07;100924.59;;;28.10;29.34
56270;BME280;42176;43.240;27.880;2023-05-14T05:07:35;100928.88;;;28.78;28.59
56270;BME280;42176;43.240;27.880;2023-05-14T05:10:04;100931.75;;;28.77;28.06
56270;BME280;42176;43.240;27.880;2023-05-14T05:12:30;100925.59;;;28.63;27.91
56270;BME280;42176;43.240;27.880;2023-05-14T05:14:56;100934.34;;;28.78;27.98
56270;BME280;42176;43.240;27.880;2023-05-14T05:17:22;100937.66;;;29.03;27.42
56270;BME280;42176;43.240;27.880;2023-05-14T05:19:48;100942.50;;;28.99;27.72
56270;BME280;42176;43.240;27.880;2023-05-14T05:22:14;100944.78;;;28.94;27.87
56270;BME280;42176;43.240;27.880;2023-05-14T05:24:39;100936.00;;;29.22;27.78
56270;BME280;42176;43.240;27.880;2023-05-14T05:27:05;100924.25;;;29.21;27.42
56270;BME280;42176;43.240;27.880;2023-05-14T05:29:30;100925.88;;;29.65;27.17
56270;BME280;42176;43.240;27.880;2023-05-14T05:31:56;100928.56;;;30.05;26.75
56270;BME280;42176;43.240;27.880;2023-05-14T05:34:21;100926.84;;;30.53;25.89
56270;BME280;42176;43.240;27.880;2023-05-14T05:36:47;100929.66;;;31.11;25.02
56270;BME280;42176;43.240;27.880;2023-05-14T05:39:12;100928.56;;;31.69;24.56
56270;BME280;42176;43.240;27.880;2023-05-14T05:41:38;100922.59;;;32.02;23.96
56270;BME280;42176;43.240;27.880;2023-05-14T05:44:04;100925.69;;;32.53;23.51
56270;BME280;42176;43.240;27.880;2023-05-14T05:46:29;100932.38;;;32.77;23.35
56270;BME280;42176;43.240;27.880;2023-05-14T05:48:55;100927.03;;;32.93;22.98
56270;BME280;42176;43.240;27.880;2023-05-14T05:51:20;100940.38;;;32.88;22.99
56270;BME280;42176;43.240;27.880;2023-05-14T05:53:49;100921.53;;;33.46;22.59
56270;BME280;42176;43.240;27.880;2023-05-14T05:56:14;100934.56;;;33.44;22.54
56270;BME280;42176;43.240;27.880;2023-05-14T05:58:39;100936.25;;;33.80;22.30
56270;BME280;42176;43.240;27.880;2023-05-14T06:01:05;100918.91;;;33.88;22.50
56270;BME280;42176;43.240;27.880;2023-05-14T06:03:30;100913.50;;;34.21;22.19
56270;BME280;42176;43.240;27.880;2023-05-14T06:05:56;100923.16;;;33.04;23.19
56270;BME280;42176;43.240;27.880;2023-05-14T06:08:21;100927.41;;;33.60;22.91
56270;BME280;42176;43.240;27.880;2023-05-14T06:10:47;100934.00;;;33.40;22.54
56270;BME280;42176;43.240;27.880;2023-05-14T06:13:12;100946.28;;;32.75;23.71
56270;BME280;42176;43.240;27.880;2023-05-14T06:15:38;100934.88;;;32.62;24.00
56270;BME280;42176;43.240;27.880;2023-05-14T06:18:03;100937.28;;;32.83;23.39
56270;BME280;42176;43.240;27.880;2023-05-14T06:20:32;100945.72;;;33.16;22.99
56270;BME280;42176;43.240;27.880;2023-05-14T06:22:58;100952.25;;;33.15;22.73
56270;BME280;42176;43.240;27.880;2023-05-14T06:25:23;100948.81;;;33.21;21.26
56270;BME280;42176;43.240;27.880;2023-05-14T06:28:07;100946.59;;;33.51;22.19
56270;BME280;42176;43.240;27.880;2023-05-14T06:30:32;100944.28;;;33.73;23.19
56270;BME280;42176;43.240;27.880;2023-05-14T06:33:00;100946.44;;;33.96;22.38
56270;BME280;42176;43.240;27.880;2023-05-14T06:35:26;100935.03;;;33.74;21.76
56270;BME280;42176;43.240;27.880;2023-05-14T06:37:51;100933.75;;;34.11;20.61
56270;BME280;42176;43.240;27.880;2023-05-14T06:40:17;100946.47;;;34.04;19.58
56270;BME280;42176;43.240;27.880;2023-05-14T06:42:43;100942.63;;;33.37;19.48
56270;BME280;42176;43.240;27.880;2023-05-14T06:45:08;100952.69;;;31.28;19.91
56270;BME280;42176;43.240;27.880;2023-05-14T06:47:34;100951.91;;;30.98;19.90
56270;BME280;42176;43.240;27.880;2023-05-14T06:49:59;100958.59;;;27.49;22.99
56270;BME280;42176;43.240;27.880;2023-05-14T06:52:26;100946.69;;;27.62;23.58
56270;BME280;42176;43.240;27.880;2023-05-14T06:54:51;100956.38;;;27.55;23.38
56270;BME280;42176;43.240;27.880;2023-05-14T06:57:37;100949.66;;;27.70;23.10
56270;BME280;42176;43.240;27.880;2023-05-14T07:00:03;100960.06;;;27.54;23.65
56270;BME280;42176;43.240;27.880;2023-05-14T07:02:29;100958.03;;;28.99;21.44
56270;BME280;42176;43.240;27.880;2023-05-14T07:04:54;100959.22;;;28.85;22.22
56270;BME280;42176;43.240;27.880;2023-05-14T07:07:20;100959.94;;;28.87;22.06
56270;BME280;42176;43.240;27.880;2023-05-14T07:09:46;100964.47;;;27.89;23.00
56270;BME280;42176;43.240;27.880;2023-05-14T07:12:12;100962.50;;;29.31;21.88
56270;BME280;42176;43.240;27.880;2023-05-14T07:14:37;100953.91;;;30.96;19.61
56270;BME280;42176;43.240;27.880;2023-05-14T07:17:03;100958.81;;;30.33;19.45
56270;BME280;42176;43.240;27.880;2023-05-14T07:19:28;100956.78;;;30.26;19.86
56270;BME280;42176;43.240;27.880;2023-05-14T07:21:55;100952.47;;;30.13;19.77
56270;BME280;42176;43.240;27.880;2023-05-14T07:24:21;100971.69;;;29.30;20.81
56270;BME280;42176;43.240;27.880;2023-05-14T07:26:47;100963.25;;;29.64;20.27
56270;BME280;42176;43.240;27.880;2023-05-14T07:29:13;100971.28;;;27.83;21.48
56270;BME280;42176;43.240;27.880;2023-05-14T07:31:38;100966.81;;;28.49;21.39
56270;BME280;42176;43.240;27.880;2023-05-14T07:34:04;100989.50;;;29.24;21.27
56270;BME280;42176;43.240;27.880;2023-05-14T07:36:32;100980.31;;;29.87;20.51
56270;BME280;42176;43.240;27.880;2023-05-14T07:38:57;100988.56;;;29.14;20.08
56270;BME280;42176;43.240;27.880;2023-05-14T07:41:23;100974.94;;;27.02;21.82
56270;BME280;42176;43.240;27.880;2023-05-14T07:43:48;100965.66;;;26.34;23.06
56270;BME280;42176;43.240;27.880;2023-05-14T07:46:14;100983.53;;;25.75;23.14
56270;BME280;42176;43.240;27.880;2023-05-14T07:48:40;100979.84;;;24.03;24.92
56270;BME280;42176;43.240;27.880;2023-05-14T07:51:06;100960.34;;;24.53;24.56
56270;BME280;42176;43.240;27.880;2023-05-14T07:53:31;100973.88;;;24.93;24.38
56270;BME280;42176;43.240;27.880;2023-05-14T07:55:57;100973.25;;;25.54;24.33
56270;BME280;42176;43.240;27.880;2023-05-14T07:58:27;100978.56;;;26.06;23.63
56270;BME280;42176;43.240;27.880;2023-05-14T08:00:56;100972.44;;;27.58;22.71
56270;BME280;42176;43.240;27.880;2023-05-14T08:03:21;100989.25;;;27.86;21.43
56270;BME280;42176;43.240;27.880;2023-05-14T08:05:47;100984.53;;;28.10;22.10
56270;BME280;42176;43.240;27.880;2023-05-14T08:08:12;100993.09;;;26.31;23.02
56270;BME280;42176;43.240;27.880;2023-05-14T08:10:41;100987.03;;;27.57;22.51
56270;BME280;42176;43.240;27.880;2023-05-14T08:13:06;100989.25;;;27.74;21.51
56270;BME280;42176;43.240;27.880;2023-05-14T08:15:31;100990.50;;;26.65;22.81
56270;BME280;42176;43.240;27.880;2023-05-14T08:17:57;100998.50;;;26.79;22.42
56270;BME280;42176;43.240;27.880;2023-05-14T08:20:28;100996.63;;;24.77;24.86
56270;BME280;42176;43.240;27.880;2023-05-14T08:22:54;100993.72;;;24.26;25.54
56270;BME280;42176;43.240;27.880;2023-05-14T08:25:20;100990.84;;;25.35;24.72
56270;BME280;42176;43.240;27.880;2023-05-14T08:27:45;100989.13;;;24.41;24.58
56270;BME280;42176;43.240;27.880;2023-05-14T08:30:11;100973.97;;;23.82;26.26
56270;BME280;42176;43.240;27.880;2023-05-14T08:32:36;100975.34;;;23.46;26.89
56270;BME280;42176;43.240;27.880;2023-05-14T08:35:02;100980.94;;;22.36;28.07
56270;BME280;42176;43.240;27.880;2023-05-14T08:37:28;100982.28;;;21.48;29.75
56270;BME280;42176;43.240;27.880;2023-05-14T08:39:57;100973.59;;;21.07;30.68
56270;BME280;42176;43.240;27.880;2023-05-14T08:42:23;100962.47;;;21.81;30.23
56270;BME280;42176;43.240;27.880;2023-05-14T08:45:02;100956.31;;;21.11;30.78
56270;BME280;42176;43.240;27.880;2023-05-14T08:47:29;100960.91;;;20.74;31.61
56270;BME280;42176;43.240;27.880;2023-05-14T08:50:04;100958.94;;;21.47;31.72
56270;BME280;42176;43.240;27.880;2023-05-14T08:52:34;100952.31;;;20.85;31.50
56270;BME280;42176;43.240;27.880;2023-05-14T08:55:03;100954.28;;;21.17;31.48
56270;BME280;42176;43.240;27.880;2023-05-14T08:57:31;100947.78;;;21.70;30.28
56270;BME280;42176;43.240;27.880;2023-05-14T08:59:57;100962.81;;;21.07;31.66
56270;BME280;42176;43.240;27.880;2023-05-14T09:02:26;100968.56;;;21.01;31.39
56270;BME280;42176;43.240;27.880;2023-05-14T09:04:57;100947.44;;;21.93;31.07
56270;BME280;42176;43.240;27.880;2023-05-14T09:07:23;100955.44;;;22.26;29.73
56270;BME280;42176;43.240;27.880;2023-05-14T09:09:52;100942.63;;;22.14;30.07
56270;BME280;42176;43.240;27.880;2023-05-14T09:12:18;100962.47;;;22.29;29.30
56270;BME280;42176;43.240;27.880;2023-05-14T09:14:45;100962.47;;;21.81;30.34
56270;BME280;42176;43.240;27.880;2023-05-14T09:17:14;100956.84;;;21.36;30.90
56270;BME280;42176;43.240;27.880;2023-05-14T09:19:42;100952.91;;;20.55;31.81
56270;BME280;42176;43.240;27.880;2023-05-14T09:22:18;100951.81;;;20.05;32.26
56270;BME280;42176;43.240;27.880;2023-05-14T09:24:44;100959.47;;;19.55;33.54
56270;BME280;42176;43.240;27.880;2023-05-14T09:27:19;100943.03;;;19.42;33.86
56270;BME280;42176;43.240;27.880;2023-05-14T09:29:46;100952.34;;;19.54;35.11
56270;BME280;42176;43.240;27.880;2023-05-14T09:32:15;100953.84;;;19.61;33.83
56270;BME280;42176;43.240;27.880;2023-05-14T09:34:43;100943.59;;;19.30;34.86
56270;BME280;42176;43.240;27.880;2023-05-14T09:37:09;100948.56;;;19.39;34.75
56270;BME280;42176;43.240;27.880;2023-05-14T09:39:36;100951.19;;;19.41;34.79
56270;BME280;42176;43.240;27.880;2023-05-14T09:42:02;100821.00;;;18.48;34.80
56270;BME280;42176;43.240;27.880;2023-05-14T09:44:28;100969.06;;;19.80;34.52
56270;BME280;42176;43.240;27.880;2023-05-14T09:46:53;100949.31;;;20.19;33.88
56270;BME280;42176;43.240;27.880;2023-05-14T09:49:19;100969.16;;;20.17;33.37
56270;BME280;42176;43.240;27.880;2023-05-14T09:51:45;100973.94;;;19.92;31.68
56270;BME280;42176;43.240;27.880;2023-05-14T09:54:11;100959.06;;;20.03;32.18
56270;BME280;42176;43.240;27.880;2023-05-14T09:56:37;100962.72;;;20.02;31.78
56270;BME280;42176;43.240;27.880;2023-05-14T09:59:03;100963.25;;;19.51;29.37
56270;BME280;42176;43.240;27.880;2023-05-14T10:01:30;100965.97;;;18.89;31.29
56270;BME280;42176;43.240;27.880;2023-05-14T10:04:02;100976.81;;;18.45;33.30
56270;BME280;42176;43.240;27.880;2023-05-14T10:06:31;100976.59;;;18.29;34.68
56270;BME280;42176;43.240;27.880;2023-05-14T10:09:01;100966.47;;;18.56;30.09
56270;BME280;42176;43.240;27.880;2023-05-14T10:11:32;100927.31;;;18.07;32.22
56270;BME280;42176;43.240;27.880;2023-05-14T10:14:10;100960.16;;;18.36;33.12
56270;BME280;42176;43.240;27.880;2023-05-14T10:16:46;100949.31;;;18.60;34.49
56270;BME280;42176;43.240;27.880;2023-05-14T10:19:14;100960.47;;;18.51;36.04
56270;BME280;42176;43.240;27.880;2023-05-14T10:22:02;100964.41;;;18.63;34.94
56270;BME280;42176;43.240;27.880;2023-05-14T10:24:28;100964.94;;;18.50;35.30
56270;BME280;42176;43.240;27.880;2023-05-14T10:26:55;100944.25;;;18.09;33.87
56270;BME280;42176;43.240;27.880;2023-05-14T10:29:31;100951.38;;;17.87;37.96
56270;BME280;42176;43.240;27.880;2023-05-14T10:31:57;100956.56;;;17.91;36.41
56270;BME280;42176;43.240;27.880;2023-05-14T10:36:59;100957.97;;;18.24;37.03
56270;BME280;42176;43.240;27.880;2023-05-14T10:39:39;100956.97;;;17.80;36.12
56270;BME280;42176;43.240;27.880;2023-05-14T10:42:05;100953.13;;;17.64;37.62
56270;BME280;42176;43.240;27.880;2023-05-14T10:44:34;100955.34;;;17.76;38.70
56270;BME280;42176;43.240;27.880;2023-05-14T10:47:00;100958.53;;;17.86;37.82
56270;BME280;42176;43.240;27.880;2023-05-14T10:49:26;100951.06;;;17.94;38.37
56270;BME280;42176;43.240;27.880;2023-05-14T10:51:52;100963.66;;;17.92;38.30
56270;BME280;42176;43.240;27.880;2023-05-14T10:54:18;100958.34;;;18.15;38.86
56270;BME280;42176;43.240;27.880;2023-05-14T10:56:46;100955.66;;;17.91;37.38
56270;BME280;42176;43.240;27.880;2023-05-14T10:59:11;100957.34;;;18.17;35.84
56270;BME280;42176;43.240;27.880;2023-05-14T11:01:39;100960.91;;;17.94;37.22
56270;BME280;42176;43.240;27.880;2023-05-14T11:04:05;100959.78;;;18.01;36.93
56270;BME280;42176;43.240;27.880;2023-05-14T11:06:31;100962.06;;;18.55;37.12
56270;BME280;42176;43.240;27.880;2023-05-14T11:08:59;100964.91;;;18.72;35.58
56270;BME280;42176;43.240;27.880;2023-05-14T11:11:25;100971.63;;;18.83;37.50
56270;BME280;42176;43.240;27.880;2023-05-14T11:13:52;100963.31;;;18.68;37.69
56270;BME280;42176;43.240;27.880;2023-05-14T11:16:20;100950.22;;;18.38;37.44
56270;BME280;42176;43.240;27.880;2023-05-14T11:18:52;100945.44;;;18.02;34.70
56270;BME280;42176;43.240;27.880;2023-05-14T11:21:18;100940.09;;;18.23;35.26
56270;BME280;42176;43.240;27.880;2023-05-14T11:23:45;100942.59;;;18.50;35.58
56270;BME280;42176;43.240;27.880;2023-05-14T11:26:11;100950.97;;;18.42;36.09
56270;BME280;42176;43.240;27.880;2023-05-14T11:28:37;100934.81;;;18.64;34.36
56270;BME280;42176;43.240;27.880;2023-05-14T11:31:03;100933.81;;;18.87;34.51
56270;BME280;42176;43.240;27.880;2023-05-14T11:33:30;100922.81;;;19.14;33.95
56270;BME280;42176;43.240;27.880;2023-05-14T11:35:55;100923.69;;;18.53;36.77
56270;BME280;42176;43.240;27.880;2023-05-14T11:38:21;100916.41;;;18.34;34.80
56270;BME280;42176;43.240;27.880;2023-05-14T11:40:57;100913.72;;;18.55;34.69
56270;BME280;42176;43.240;27.880;2023-05-14T11:43:24;100899.09;;;18.21;36.33
56270;BME280;42176;43.240;27.880;2023-05-14T11:45:51;100897.16;;;18.02;36.56
56270;BME280;42176;43.240;27.880;2023-05-14T11:48:17;100901.91;;;17.94;37.74
56270;BME280;42176;43.240;27.880;2023-05-14T11:50:50;100889.59;;;17.90;37.68
56270;BME280;42176;43.240;27.880;2023-05-14T11:53:29;100875.81;;;17.99;38.77
56270;BME280;42176;43.240;27.880;2023-05-14T11:55:55;100876.84;;;18.17;36.08
56270;BME280;42176;43.240;27.880;2023-05-14T11:58:22;100859.25;;;17.88;37.54
56270;BME280;42176;43.240;27.880;2023-05-14T12:00:51;100850.66;;;17.79;37.06
56270;BME280;42176;43.240;27.880;2023-05-14T12:03:18;100849.41;;;17.66;37.58
56270;BME280;42176;43.240;27.880;2023-05-14T12:06:00;100853.22;;;17.37;40.09
56270;BME280;42176;43.240;27.880;2023-05-14T12:08:29;100841.41;;;17.42;39.42
56270;BME280;42176;43.240;27.880;2023-05-14T12:10:58;100842.66;;;17.33;40.28
56270;BME280;42176;43.240;27.880;2023-05-14T12:13:26;100837.66;;;17.91;41.43
56270;BME280;42176;43.240;27.880;2023-05-14T12:15:57;100842.28;;;18.09;39.76
56270;BME280;42176;43.240;27.880;2023-05-14T12:18:24;100832.16;;;17.94;40.17
56270;BME280;42176;43.240;27.880;2023-05-14T12:20:51;100842.25;;;17.89;39.31
56270;BME280;42176;43.240;27.880;2023-05-14T12:23:24;100836.31;;;17.58;40.08
56270;BME280;42176;43.240;27.880;2023-05-14T12:25:50;100837.53;;;17.49;40.31
56270;BME280;42176;43.240;27.880;2023-05-14T12:28:16;100831.47;;;17.44;39.03
56270;BME280;42176;43.240;27.880;2023-05-14T12:30:42;100831.63;;;17.17;39.18
56270;BME280;42176;43.240;27.880;2023-05-14T12:33:07;100829.97;;;17.15;38.61
56270;BME280;42176;43.240;27.880;2023-05-14T12:35:33;100834.63;;;17.33;38.31
56270;BME280;42176;43.240;27.880;2023-05-14T12:38:00;100835.72;;;17.04;39.54
56270;BME280;42176;43.240;27.880;2023-05-14T12:40:26;100850.28;;;16.97;40.19
56270;BME280;42176;43.240;27.880;2023-05-14T12:42:51;100852.69;;;16.79;40.47
56270;BME280;42176;43.240;27.880;2023-05-14T12:45:17;100840.22;;;16.78;42.79
56270;BME280;42176;43.240;27.880;2023-05-14T12:47:42;100845.84;;;16.70;42.59
56270;BME280;42176;43.240;27.880;2023-05-14T12:50:08;100841.38;;;16.71;41.16
56270;BME280;42176;43.240;27.880;2023-05-14T12:52:33;100839.13;;;16.84;41.05